Time;durP1;ratioP1;P1;durP2;ratioP2;P2;SDS_P1;SDS_P2;PMS_P1;PMS_P2;Temp;Humidity;BMP_temperature;BMP_pressure;BME280_temperature;BME280_humidity;BME280_pressure;Samples;Min_cycle;Max_cycle;Signal;HPM_P1;HPM_P2
2021/12/29 00:00:31;;;;;;;13.57;2.50;;;9.40;99.90;;;;;;5085177;28;20020;-75
2021/12/29 00:03:00;;;;;;;9.02;2.30;;;9.40;99.90;;;;;;5085578;28;20056;-75
2021/12/29 00:05:27;;;;;;;10.45;2.53;;;9.40;99.90;;;;;;5085351;28;20020;-75
2021/12/29 00:07:53;;;;;;;12.10;2.65;;;9.40;99.90;;;;;;5084191;28;20028;-74
2021/12/29 00:10:19;;;;;;;12.32;2.10;;;9.20;99.90;;;;;;5085400;28;20300;-76
2021/12/29 00:12:49;;;;;;;8.25;2.17;;;9.30;99.90;;;;;;5085406;28;20024;-74
2021/12/29 00:15:17;;;;;;;7.93;2.35;;;9.30;99.90;;;;;;5083890;28;20318;-75
2021/12/29 00:17:45;;;;;;;13.25;2.35;;;9.30;99.90;;;;;;5084053;28;20028;-75
2021/12/29 00:20:13;;;;;;;7.75;2.20;;;9.30;99.90;;;;;;5067614;28;20021;-75
2021/12/29 00:22:39;;;;;;;9.55;2.28;;;9.30;99.90;;;;;;5083876;28;20188;-75
2021/12/29 00:25:06;;;;;;;10.30;2.30;;;9.30;99.90;;;;;;5084969;28;20042;-74
2021/12/29 00:27:32;;;;;;;6.55;2.35;;;9.30;99.90;;;;;;5085096;28;20032;-74
2021/12/29 00:29:57;;;;;;;10.23;2.08;;;9.20;99.90;;;;;;5084529;28;20100;-74
2021/12/29 00:32:23;;;;;;;14.55;2.22;;;9.10;99.90;;;;;;5084588;28;20282;-75
2021/12/29 00:34:49;;;;;;;10.77;2.38;;;9.20;99.90;;;;;;5083817;28;20080;-75
2021/12/29 00:37:14;;;;;;;5.85;2.30;;;9.10;99.90;;;;;;5084782;28;20020;-74
2021/12/29 00:39:40;;;;;;;9.18;2.05;;;9.20;99.90;;;;;;5083831;28;20024;-74
2021/12/29 00:42:06;;;;;;;7.10;2.53;;;9.20;99.90;;;;;;5084913;28;20032;-75
2021/12/29 00:44:33;;;;;;;6.90;2.40;;;9.20;99.90;;;;;;5084388;28;20021;-74
2021/12/29 00:46:59;;;;;;;8.07;2.33;;;9.20;99.90;;;;;;5083600;28;20027;-74
2021/12/29 00:49:32;;;;;;;11.02;2.67;;;9.10;99.90;;;;;;5084640;28;20021;-74
2021/12/29 00:52:00;;;;;;;8.98;2.50;;;9.20;99.90;;;;;;5082707;28;20024;-72
2021/12/29 00:54:27;;;;;;;10.23;3.40;;;9.20;99.90;;;;;;5083399;28;20025;-74
2021/12/29 00:56:53;;;;;;;12.20;2.88;;;9.20;99.90;;;;;;5084561;28;20040;-75
2021/12/29 00:59:19;;;;;;;8.15;2.17;;;9.20;99.90;;;;;;5084305;28;20032;-74
2021/12/29 01:01:46;;;;;;;13.80;2.70;;;9.10;99.90;;;;;;5096966;28;20096;-74
2021/12/29 01:04:12;;;;;;;9.35;2.80;;;9.10;99.90;;;;;;5096607;28;20013;-75
2021/12/29 01:06:37;;;;;;;11.60;2.70;;;9.10;99.90;;;;;;5095974;28;20048;-75
2021/12/29 01:09:04;;;;;;;9.85;2.47;;;9.10;99.90;;;;;;5092001;28;20043;-74
2021/12/29 01:11:29;;;;;;;10.48;2.55;;;9.10;99.90;;;;;;5088002;28;20031;-74
2021/12/29 01:13:55;;;;;;;13.52;2.40;;;9.10;99.90;;;;;;5084491;28;20024;-75
2021/12/29 01:16:36;;;;;;;11.38;2.75;;;9.20;99.90;;;;;;5082861;28;20028;-74
2021/12/29 01:19:51;;;;;;;12.33;2.53;;;9.20;99.90;;;;;;5084037;28;20023;-74
2021/12/29 01:22:17;;;;;;;16.67;3.03;;;9.20;99.90;;;;;;5061731;28;20273;-75
2021/12/29 01:24:45;;;;;;;12.43;2.80;;;9.30;99.90;;;;;;5062006;28;20044;-74
2021/12/29 01:27:12;;;;;;;11.70;3.30;;;9.30;99.90;;;;;;5061964;28;20060;-75
2021/12/29 01:29:38;;;;;;;12.10;3.05;;;9.30;99.90;;;;;;5061848;28;20024;-74
2021/12/29 01:32:04;;;;;;;10.13;2.90;;;9.30;99.90;;;;;;5061151;28;20132;-75
2021/12/29 01:34:29;;;;;;;12.05;3.00;;;9.30;99.90;;;;;;5061895;28;20021;-74
2021/12/29 01:36:55;;;;;;;10.73;3.08;;;9.30;99.90;;;;;;5061757;28;20045;-75
2021/12/29 01:39:22;;;;;;;10.43;3.08;;;9.30;99.90;;;;;;5045429;28;20033;-75
2021/12/29 01:41:51;;;;;;;18.33;2.70;;;9.30;99.90;;;;;;5061893;28;20033;-74
2021/12/29 01:44:18;;;;;;;13.10;2.92;;;9.40;99.90;;;;;;5061869;28;20021;-74
2021/12/29 01:46:45;;;;;;;15.80;3.20;;;9.30;99.90;;;;;;5021160;28;20049;-74
2021/12/29 01:49:11;;;;;;;17.95;3.15;;;9.40;99.90;;;;;;5041947;28;20327;-75
2021/12/29 01:51:47;;;;;;;16.35;2.90;;;9.40;99.90;;;;;;5025597;28;20045;-75
2021/12/29 01:54:16;;;;;;;19.58;3.70;;;9.50;99.90;;;;;;5028032;28;20069;-75
2021/12/29 01:56:44;;;;;;;20.70;3.58;;;9.50;99.90;;;;;;5027791;28;20014;-74
2021/12/29 01:59:10;;;;;;;26.95;3.80;;;9.60;99.90;;;;;;5028118;28;20025;-75
2021/12/29 02:01:36;;;;;;;25.80;3.83;;;9.70;99.90;;;;;;5026716;28;20309;-75
2021/12/29 02:04:02;;;;;;;21.75;3.78;;;9.80;99.90;;;;;;5010482;28;20022;-75
2021/12/29 02:06:27;;;;;;;30.88;3.50;;;9.80;99.90;;;;;;5026532;28;20025;-75
2021/12/29 02:08:54;;;;;;;27.05;3.83;;;9.90;99.90;;;;;;5027966;28;20022;-74
2021/12/29 02:11:28;;;;;;;22.45;3.92;;;9.90;99.90;;;;;;5027814;28;20018;-74
2021/12/29 02:13:54;;;;;;;22.38;3.60;;;9.90;99.90;;;;;;5027842;28;20025;-74
2021/12/29 02:16:20;;;;;;;27.00;3.92;;;9.90;99.90;;;;;;5027660;28;20302;-74
2021/12/29 02:19:08;;;;;;;20.48;3.17;;;9.90;99.90;;;;;;5027807;28;20037;-75
2021/12/29 02:21:34;;;;;;;23.48;3.92;;;10.00;99.90;;;;;;5026889;28;20231;-76
2021/12/29 02:24:17;;;;;;;22.17;3.55;;;9.90;99.90;;;;;;5026315;28;20021;-74
2021/12/29 02:26:45;;;;;;;19.90;2.90;;;10.00;99.90;;;;;;5026596;28;20032;-75
2021/12/29 02:29:15;;;;;;;20.23;4.15;;;9.90;99.90;;;;;;5026370;28;20237;-75
2021/12/29 02:31:41;;;;;;;18.73;3.03;;;9.90;99.90;;;;;;5059049;28;20389;-75
2021/12/29 02:34:09;;;;;;;24.00;3.00;;;9.90;99.90;;;;;;5087156;28;20021;-75
2021/12/29 02:36:35;;;;;;;20.80;3.75;;;9.90;99.90;;;;;;5085726;28;20202;-74
2021/12/29 02:39:04;;;;;;;17.60;2.67;;;9.90;99.90;;;;;;5086147;28;20024;-75
2021/12/29 02:41:31;;;;;;;30.42;3.70;;;9.90;99.90;;;;;;5087123;28;20020;-72
2021/12/29 02:44:00;;;;;;;16.30;2.55;;;9.90;99.90;;;;;;5086867;28;20088;-73
2021/12/29 02:46:27;;;;;;;16.00;2.53;;;9.90;99.90;;;;;;5086534;28;20034;-74
2021/12/29 02:48:59;;;;;;;19.83;2.72;;;10.00;99.90;;;;;;5087178;28;20012;-74
2021/12/29 02:51:27;;;;;;;16.88;3.03;;;9.90;99.90;;;;;;5085777;28;20032;-74
2021/12/29 02:53:53;;;;;;;19.38;2.75;;;9.90;99.90;;;;;;5083914;28;20016;-75
2021/12/29 02:56:19;;;;;;;20.50;3.13;;;9.80;99.90;;;;;;5085627;28;20033;-75
2021/12/29 02:58:45;;;;;;;20.83;2.97;;;9.70;99.90;;;;;;5086904;28;20031;-74
2021/12/29 03:01:14;;;;;;;19.70;2.95;;;9.70;99.90;;;;;;5086415;28;20070;-75
2021/12/29 03:03:40;;;;;;;17.10;2.97;;;9.70;99.90;;;;;;5084710;28;20096;-75
2021/12/29 03:06:07;;;;;;;13.90;2.55;;;9.70;99.90;;;;;;5086455;28;20028;-75
2021/12/29 03:08:34;;;;;;;17.75;2.63;;;9.70;99.90;;;;;;5085106;28;20028;-75
2021/12/29 03:10:59;;;;;;;16.67;2.60;;;9.70;99.90;;;;;;5085475;28;20028;-75
2021/12/29 03:13:28;;;;;;;12.82;2.38;;;9.70;99.90;;;;;;5085542;28;20246;-74
2021/12/29 03:15:55;;;;;;;14.98;2.30;;;9.60;99.90;;;;;;5068908;28;20024;-75
2021/12/29 03:18:21;;;;;;;19.02;2.78;;;9.60;99.90;;;;;;5085292;28;20054;-73
2021/12/29 03:20:47;;;;;;;19.20;2.92;;;9.60;99.90;;;;;;5085128;28;20104;-75
2021/12/29 03:23:13;;;;;;;16.95;2.42;;;9.60;99.90;;;;;;5085283;28;20021;-74
2021/12/29 03:25:39;;;;;;;17.58;3.45;;;9.60;99.90;;;;;;5086575;28;20252;-74
2021/12/29 03:28:05;;;;;;;24.38;3.17;;;9.60;99.90;;;;;;5086037;28;20074;-76
2021/12/29 03:30:35;;;;;;;16.50;3.00;;;9.60;99.90;;;;;;5085663;28;20040;-74
2021/12/29 03:33:03;;;;;;;17.17;3.80;;;9.60;99.90;;;;;;5084822;28;20037;-75
2021/12/29 03:35:31;;;;;;;19.00;4.15;;;9.60;99.90;;;;;;5086135;28;20134;-72
2021/12/29 03:37:58;;;;;;;14.93;3.53;;;9.60;99.90;;;;;;5084844;28;20021;-74
2021/12/29 03:40:24;;;;;;;15.65;2.60;;;9.60;99.90;;;;;;5084935;28;20066;-74
2021/12/29 03:42:50;;;;;;;22.65;3.00;;;9.60;99.90;;;;;;5085976;28;20021;-76
2021/12/29 03:45:15;;;;;;;21.65;3.03;;;9.60;99.90;;;;;;5084859;28;20027;-76
2021/12/29 03:47:41;;;;;;;24.55;3.03;;;9.60;99.90;;;;;;5084563;28;20123;-74
2021/12/29 03:50:08;;;;;;;24.77;3.15;;;9.60;99.90;;;;;;5067506;28;20025;-74
2021/12/29 03:52:33;;;;;;;13.73;2.47;;;9.50;99.90;;;;;;5085680;28;20204;-73
2021/12/29 03:54:59;;;;;;;20.48;2.60;;;9.50;99.90;;;;;;5083173;28;20021;-74
2021/12/29 03:57:25;;;;;;;11.52;1.77;;;9.60;99.90;;;;;;5084449;28;20385;-74
2021/12/29 03:59:50;;;;;;;15.15;2.20;;;9.50;99.90;;;;;;5084667;28;20024;-72
2021/12/29 04:02:16;;;;;;;17.50;2.22;;;9.50;99.90;;;;;;5085385;28;20016;-74
2021/12/29 04:04:42;;;;;;;13.20;1.75;;;9.50;99.90;;;;;;5085549;28;20092;-74
2021/12/29 04:07:07;;;;;;;13.43;1.88;;;9.40;99.90;;;;;;5087261;28;20032;-73
2021/12/29 04:09:33;;;;;;;9.55;1.50;;;9.40;99.90;;;;;;5098328;28;20040;-72
2021/12/29 04:15:24;;;;;;;16.10;2.17;;;9.50;99.90;;;;;;5094819;28;20123;-72
2021/12/29 04:17:51;;;;;;;11.93;1.85;;;9.50;99.90;;;;;;5091440;28;20219;-73
2021/12/29 04:23:08;;;;;;;12.55;1.95;;;9.40;99.90;;;;;;5070475;28;20024;-72
2021/12/29 04:25:36;;;;;;;12.70;1.60;;;9.40;99.90;;;;;;5084000;28;20021;-72
2021/12/29 04:28:08;;;;;;;11.68;1.58;;;9.30;99.90;;;;;;5085043;28;20028;-73
2021/12/29 04:30:34;;;;;;;12.43;1.92;;;9.40;99.90;;;;;;5050982;28;20371;-73
2021/12/29 04:32:59;;;;;;;10.52;1.90;;;9.30;99.90;;;;;;5066595;28;20059;-72
2021/12/29 04:35:25;;;;;;;11.32;1.80;;;9.30;99.90;;;;;;5084842;28;20066;-74
2021/12/29 04:37:53;;;;;;;10.13;1.70;;;9.30;99.90;;;;;;5084798;28;20020;-74
2021/12/29 04:40:20;;;;;;;10.75;1.52;;;9.30;99.90;;;;;;5084738;28;20307;-73
2021/12/29 04:42:46;;;;;;;14.90;2.20;;;9.30;99.90;;;;;;5083787;28;20016;-73
2021/12/29 04:45:14;;;;;;;7.93;1.52;;;9.40;99.90;;;;;;5084629;28;20047;-72
2021/12/29 04:47:43;;;;;;;9.82;1.73;;;9.30;99.90;;;;;;5084652;28;20025;-72
2021/12/29 04:50:23;;;;;;;7.85;1.52;;;9.20;99.90;;;;;;5083293;28;20196;-73
2021/12/29 04:52:50;;;;;;;6.93;1.27;;;9.20;99.90;;;;;;5083576;28;20080;-72
2021/12/29 04:55:16;;;;;;;6.30;1.27;;;9.20;99.90;;;;;;5082926;28;20024;-72
2021/12/29 04:57:42;;;;;;;6.75;1.02;;;9.30;99.90;;;;;;5083590;28;20330;-73
2021/12/29 05:00:08;;;;;;;7.30;1.25;;;9.20;99.90;;;;;;5084243;28;20035;-73
2021/12/29 05:02:34;;;;;;;7.45;1.40;;;9.20;99.90;;;;;;5083212;28;20078;-73
2021/12/29 05:05:07;;;;;;;7.07;1.00;;;9.20;99.90;;;;;;5083242;28;20254;-73
2021/12/29 05:10:19;;;;;;;5.50;1.20;;;9.20;99.90;;;;;;5083218;28;20048;-73
2021/12/29 05:12:44;;;;;;;5.22;1.23;;;9.20;99.90;;;;;;5084487;28;20020;-72
2021/12/29 05:15:10;;;;;;;9.27;1.77;;;9.30;99.90;;;;;;5084392;28;20180;-73
2021/12/29 05:17:36;;;;;;;4.13;1.15;;;9.30;99.90;;;;;;5084326;28;20020;-73
2021/12/29 05:20:02;;;;;;;5.80;0.95;;;9.40;99.90;;;;;;5083982;28;20034;-72
2021/12/29 05:22:28;;;;;;;3.40;0.85;;;9.40;99.90;;;;;;5084171;28;20200;-73
2021/12/29 05:24:54;;;;;;;7.40;1.45;;;9.40;99.90;;;;;;5083821;28;20036;-74
2021/12/29 05:27:20;;;;;;;4.78;1.48;;;9.40;99.90;;;;;;5066229;28;20028;-73
2021/12/29 05:29:45;;;;;;;7.07;0.95;;;9.40;99.90;;;;;;5083759;28;20303;-72
2021/12/29 05:32:11;;;;;;;4.05;1.15;;;9.40;99.90;;;;;;5082254;28;20049;-73
2021/12/29 05:34:37;;;;;;;3.25;0.80;;;9.30;99.90;;;;;;5083734;28;20020;-74
2021/12/29 05:37:03;;;;;;;7.43;1.15;;;9.40;99.90;;;;;;5083667;28;20040;-73
2021/12/29 05:39:28;;;;;;;2.08;0.57;;;9.40;99.90;;;;;;5083830;28;20088;-73
2021/12/29 05:41:54;;;;;;;2.80;0.63;;;9.40;99.90;;;;;;5082902;28;20323;-72
2021/12/29 05:44:20;;;;;;;5.82;0.80;;;9.40;99.90;;;;;;5083958;28;20032;-73
2021/12/29 05:46:46;;;;;;;3.10;1.00;;;9.50;99.90;;;;;;5083842;28;20017;-72
2021/12/29 05:49:11;;;;;;;2.35;0.50;;;9.50;99.90;;;;;;5084068;28;20092;-73
2021/12/29 05:51:37;;;;;;;2.20;0.50;;;9.50;99.90;;;;;;5083835;28;20024;-74
2021/12/29 05:54:03;;;;;;;3.47;0.77;;;9.50;99.90;;;;;;5083899;28;20370;-74
2021/12/29 05:56:30;;;;;;;2.60;0.65;;;9.50;99.90;;;;;;5082559;28;20086;-73
2021/12/29 05:58:59;;;;;;;3.65;0.55;;;9.50;99.90;;;;;;5083981;28;20032;-72
2021/12/29 06:01:25;;;;;;;1.95;0.60;;;9.50;99.90;;;;;;5082064;28;20044;-73
2021/12/29 06:03:51;;;;;;;0.60;0.40;;;9.50;99.90;;;;;;5082645;28;20032;-74
2021/12/29 06:06:17;;;;;;;1.35;0.45;;;9.50;99.90;;;;;;5083616;28;20203;-73
2021/12/29 06:08:42;;;;;;;1.17;0.65;;;9.60;99.90;;;;;;5083819;28;20074;-74
2021/12/29 06:11:08;;;;;;;3.30;0.68;;;9.60;99.90;;;;;;5083454;28;20322;-73
2021/12/29 06:13:33;;;;;;;2.92;0.80;;;9.70;99.90;;;;;;5083761;28;20020;-73
2021/12/29 06:15:59;;;;;;;3.85;2.50;;;9.60;99.90;;;;;;5083705;28;20336;-73
2021/12/29 06:18:25;;;;;;;1.85;0.90;;;9.60;99.90;;;;;;5083685;28;20016;-73
2021/12/29 06:20:51;;;;;;;3.50;0.90;;;9.70;99.90;;;;;;5083231;28;20124;-72
2021/12/29 06:23:17;;;;;;;4.13;1.10;;;9.70;99.90;;;;;;5083486;28;20028;-73
2021/12/29 06:25:43;;;;;;;2.45;1.10;;;9.70;99.90;;;;;;5083413;28;20016;-74
2021/12/29 06:28:09;;;;;;;3.30;0.98;;;9.70;99.90;;;;;;5083643;28;20299;-73
2021/12/29 06:30:34;;;;;;;4.38;1.30;;;9.80;99.90;;;;;;5082819;28;20023;-72
2021/12/29 06:33:00;;;;;;;2.95;1.23;;;9.80;99.90;;;;;;5083375;28;20094;-73
2021/12/29 06:35:26;;;;;;;3.72;1.30;;;9.80;99.90;;;;;;5083573;28;20024;-73
2021/12/29 06:37:51;;;;;;;1.73;1.20;;;9.80;99.90;;;;;;5086123;28;20024;-73
2021/12/29 06:40:17;;;;;;;2.40;1.55;;;9.80;99.90;;;;;;5086965;28;20020;-73
2021/12/29 06:42:43;;;;;;;2.20;1.60;;;9.80;99.90;;;;;;5087105;28;20024;-73
2021/12/29 06:45:10;;;;;;;1.77;1.55;;;9.80;99.90;;;;;;5086044;28;20055;-73
2021/12/29 06:47:36;;;;;;;2.58;1.48;;;9.80;99.90;;;;;;5085648;28;20115;-74
2021/12/29 06:50:03;;;;;;;2.85;1.75;;;9.80;99.90;;;;;;5085652;28;20020;-73
2021/12/29 06:52:28;;;;;;;2.90;1.92;;;9.80;99.90;;;;;;5086525;28;20012;-72
2021/12/29 06:54:54;;;;;;;4.15;1.92;;;9.90;99.90;;;;;;5086852;28;20017;-75
2021/12/29 06:57:20;;;;;;;1.85;1.70;;;9.90;99.90;;;;;;5085557;28;20038;-73
2021/12/29 06:59:46;;;;;;;3.40;1.83;;;9.90;99.90;;;;;;5086887;28;20035;-73
2021/12/29 07:02:14;;;;;;;2.42;2.03;;;10.00;99.90;;;;;;5086264;28;20044;-73
2021/12/29 07:04:41;;;;;;;2.65;2.42;;;10.00;99.90;;;;;;5086604;28;20028;-74
2021/12/29 07:07:06;;;;;;;4.82;2.38;;;10.10;99.90;;;;;;5085546;28;20066;-74
2021/12/29 07:09:32;;;;;;;2.00;1.80;;;10.10;99.90;;;;;;5086700;28;20017;-72
2021/12/29 07:11:58;;;;;;;3.78;1.83;;;10.20;99.90;;;;;;5085565;28;20093;-74
2021/12/29 07:14:24;;;;;;;3.10;2.40;;;10.40;99.90;;;;;;5087315;28;20028;-73
2021/12/29 07:16:50;;;;;;;2.47;1.98;;;10.40;99.90;;;;;;5099060;28;20017;-73
2021/12/29 07:19:18;;;;;;;3.20;2.20;;;10.50;99.90;;;;;;5097839;28;20024;-74
2021/12/29 07:21:44;;;;;;;2.28;2.08;;;10.50;99.90;;;;;;5080688;28;20069;-73
2021/12/29 07:24:11;;;;;;;2.63;2.42;;;10.50;99.90;;;;;;5094264;28;20020;-74
2021/12/29 07:26:37;;;;;;;3.45;2.70;;;10.60;99.90;;;;;;5055620;28;20031;-73
2021/12/29 07:29:05;;;;;;;4.60;2.92;;;10.60;99.90;;;;;;5084966;28;20035;-74
2021/12/29 07:31:32;;;;;;;3.67;3.25;;;10.60;99.90;;;;;;5084527;28;20025;-74
2021/12/29 07:33:58;;;;;;;8.73;2.95;;;10.60;99.90;;;;;;5084694;28;20266;-75
2021/12/29 07:36:24;;;;;;;3.60;3.03;;;10.60;99.90;;;;;;5084930;28;20296;-74
2021/12/29 07:38:49;;;;;;;3.65;2.90;;;10.60;99.90;;;;;;5086158;28;20025;-74
2021/12/29 07:41:16;;;;;;;3.63;3.13;;;10.70;99.90;;;;;;5085743;28;20025;-74
2021/12/29 07:43:42;;;;;;;4.25;3.05;;;10.70;99.90;;;;;;5086113;28;20028;-74
2021/12/29 07:46:09;;;;;;;4.50;3.40;;;10.70;99.90;;;;;;5067824;28;20025;-76
2021/12/29 07:48:35;;;;;;;4.63;3.38;;;10.80;99.90;;;;;;5085110;28;20070;-75
2021/12/29 07:51:04;;;;;;;4.90;3.33;;;10.80;99.90;;;;;;5085324;28;20024;-73
2021/12/29 07:53:30;;;;;;;4.70;3.35;;;10.80;99.90;;;;;;5085859;28;20051;-73
2021/12/29 07:55:56;;;;;;;2.88;2.53;;;10.90;99.90;;;;;;5085814;28;20020;-74
2021/12/29 07:58:23;;;;;;;2.70;2.50;;;11.00;99.90;;;;;;5083999;28;20323;-74
2021/12/29 08:00:50;;;;;;;2.33;2.13;;;11.00;99.90;;;;;;5085275;28;20197;-74
2021/12/29 08:03:16;;;;;;;2.55;2.20;;;11.00;99.90;;;;;;5085571;28;20253;-73
2021/12/29 08:05:43;;;;;;;1.95;1.73;;;11.10;99.90;;;;;;5085255;28;20311;-73
2021/12/29 08:08:10;;;;;;;1.90;1.65;;;11.10;99.90;;;;;;5085568;28;20353;-74
2021/12/29 08:10:37;;;;;;;1.95;1.60;;;11.20;99.90;;;;;;5085301;28;20042;-73
2021/12/29 08:13:04;;;;;;;1.40;1.30;;;11.30;99.90;;;;;;5084285;28;20017;-74
2021/12/29 08:15:32;;;;;;;1.67;1.20;;;11.30;99.90;;;;;;5067861;28;20028;-73
2021/12/29 08:17:59;;;;;;;1.15;0.93;;;11.40;99.90;;;;;;5085355;28;20025;-74
2021/12/29 08:20:25;;;;;;;0.80;0.80;;;11.40;99.90;;;;;;5083518;28;20196;-73
2021/12/29 08:22:52;;;;;;;1.27;0.70;;;11.50;99.90;;;;;;5085203;28;20048;-74
2021/12/29 08:25:18;;;;;;;0.40;0.40;;;11.50;99.90;;;;;;5085292;28;20016;-74
2021/12/29 08:27:44;;;;;;;1.70;0.70;;;11.60;99.90;;;;;;5083685;28;20032;-74
2021/12/29 08:30:10;;;;;;;1.15;0.45;;;11.60;99.90;;;;;;5084989;28;20099;-73
2021/12/29 08:32:36;;;;;;;1.00;0.40;;;11.60;99.90;;;;;;5083103;28;20075;-74
2021/12/29 08:35:02;;;;;;;0.65;0.30;;;11.70;99.90;;;;;;5084802;28;20020;-73
2021/12/29 08:37:28;;;;;;;0.90;0.50;;;11.80;99.90;;;;;;5085031;28;20047;-74
2021/12/29 08:39:55;;;;;;;1.75;0.30;;;11.90;99.90;;;;;;5083893;28;20296;-74
2021/12/29 08:42:22;;;;;;;0.20;0.20;;;12.00;99.90;;;;;;5084273;28;20224;-74
2021/12/29 08:44:48;;;;;;;0.20;0.20;;;12.00;99.90;;;;;;5083674;28;20024;-73
2021/12/29 08:47:14;;;;;;;1.55;0.28;;;12.00;99.90;;;;;;5083456;28;20025;-75
2021/12/29 08:49:39;;;;;;;3.05;0.20;;;12.10;99.90;;;;;;5083486;28;20020;-74
2021/12/29 08:52:05;;;;;;;0.10;0.10;;;12.10;99.90;;;;;;5084539;28;20025;-74
2021/12/29 08:54:32;;;;;;;0.20;0.20;;;12.20;99.90;;;;;;5084422;28;20212;-74
2021/12/29 08:56:57;;;;;;;0.20;0.20;;;12.30;99.90;;;;;;5084704;28;20299;-73
2021/12/29 08:59:23;;;;;;;1.35;0.38;;;12.30;99.90;;;;;;5081724;28;20091;-74
2021/12/29 09:01:49;;;;;;;0.47;0.20;;;12.30;99.90;;;;;;5083725;28;20032;-74
2021/12/29 09:04:15;;;;;;;0.30;0.20;;;12.30;99.90;;;;;;5082979;28;20083;-73
2021/12/29 09:06:41;;;;;;;0.20;0.20;;;12.40;99.90;;;;;;5084414;28;20085;-74
2021/12/29 09:09:07;;;;;;;0.50;0.28;;;12.50;99.90;;;;;;5083217;28;20029;-74
2021/12/29 09:11:33;;;;;;;1.38;0.30;;;12.60;99.90;;;;;;5084378;28;20024;-74
2021/12/29 09:14:00;;;;;;;0.20;0.13;;;12.80;99.90;;;;;;5084219;28;20066;-75
2021/12/29 09:16:27;;;;;;;1.20;0.15;;;12.90;99.90;;;;;;5082965;28;20023;-75
2021/12/29 09:18:53;;;;;;;0.22;0.20;;;13.00;99.90;;;;;;5066297;28;20091;-75
2021/12/29 09:21:20;;;;;;;1.52;0.20;;;13.10;99.90;;;;;;5082840;28;20020;-74
2021/12/29 09:23:46;;;;;;;0.60;0.20;;;13.20;99.90;;;;;;5083218;28;20028;-75
2021/12/29 09:26:15;;;;;;;0.77;0.40;;;13.20;99.90;;;;;;5083142;28;20050;-74
2021/12/29 09:28:43;;;;;;;0.75;0.30;;;13.30;99.90;;;;;;5083272;28;20033;-74
2021/12/29 09:31:09;;;;;;;0.60;0.30;;;13.30;99.90;;;;;;5082296;28;20023;-75
2021/12/29 09:33:35;;;;;;;2.00;0.30;;;13.40;99.90;;;;;;5065750;28;20266;-76
2021/12/29 09:36:02;;;;;;;0.85;0.30;;;13.40;99.90;;;;;;5083174;28;20032;-74
2021/12/29 09:38:34;;;;;;;2.38;0.50;;;13.50;99.90;;;;;;5082709;28;20307;-74
2021/12/29 09:41:00;;;;;;;3.10;0.57;;;13.50;99.90;;;;;;5083911;28;20092;-74
2021/12/29 09:43:26;;;;;;;0.98;0.30;;;13.50;99.90;;;;;;5083875;28;20025;-74
2021/12/29 09:45:52;;;;;;;2.15;0.40;;;13.50;99.90;;;;;;5082479;28;20299;-73
2021/12/29 09:48:18;;;;;;;0.70;0.40;;;13.50;99.90;;;;;;5083783;28;20048;-74
2021/12/29 09:50:45;;;;;;;1.92;0.60;;;13.60;99.90;;;;;;5083747;28;20051;-73
2021/12/29 09:53:12;;;;;;;2.70;0.65;;;13.60;99.90;;;;;;5083788;28;20028;-73
2021/12/29 09:55:38;;;;;;;1.58;0.70;;;13.60;99.90;;;;;;5083986;28;20023;-73
2021/12/29 09:58:05;;;;;;;3.35;0.68;;;13.70;99.90;;;;;;5081399;28;20044;-73
2021/12/29 10:00:35;;;;;;;6.63;1.13;;;13.70;99.90;;;;;;5082561;28;20013;-74
2021/12/29 10:03:04;;;;;;;5.25;0.90;;;13.80;99.90;;;;;;5083886;28;20055;-74
2021/12/29 10:05:31;;;;;;;6.88;1.10;;;13.80;99.90;;;;;;5082632;28;20080;-74
2021/12/29 10:08:00;;;;;;;3.42;0.63;;;13.90;99.90;;;;;;5083593;28;20077;-76
2021/12/29 10:10:26;;;;;;;6.65;1.20;;;14.00;99.90;;;;;;5082767;28;20017;-75
2021/12/29 10:12:52;;;;;;;5.38;0.95;;;14.00;99.90;;;;;;5085721;28;20042;-74
2021/12/29 10:15:17;;;;;;;7.28;1.40;;;14.10;99.90;;;;;;5087594;28;20024;-75
2021/12/29 10:17:43;;;;;;;3.78;0.63;;;14.10;99.90;;;;;;5087784;28;20203;-75
2021/12/29 10:20:13;;;;;;;6.10;1.00;;;14.20;99.90;;;;;;5086031;28;20087;-74
2021/12/29 10:22:43;;;;;;;5.63;0.80;;;14.30;99.90;;;;;;5092019;28;20035;-74
2021/12/29 10:25:17;;;;;;;3.88;0.90;;;14.30;99.90;;;;;;5097755;28;20036;-75
2021/12/29 10:27:44;;;;;;;6.35;0.80;;;14.30;99.90;;;;;;5094732;28;20032;-75
2021/12/29 10:30:19;;;;;;;7.65;1.42;;;14.30;99.90;;;;;;5093994;28;20032;-75
2021/12/29 10:32:45;;;;;;;5.53;0.85;;;14.40;99.90;;;;;;5070807;28;20064;-76
2021/12/29 10:35:20;;;;;;;7.15;0.77;;;14.40;99.90;;;;;;5067196;28;20021;-75
2021/12/29 10:37:46;;;;;;;4.95;0.85;;;14.50;99.90;;;;;;5049477;28;20067;-75
2021/12/29 10:40:15;;;;;;;5.53;0.68;;;14.50;99.90;;;;;;5067193;28;20017;-74
2021/12/29 10:42:54;;;;;;;4.55;0.75;;;14.50;99.90;;;;;;5067075;28;20020;-76
2021/12/29 10:45:29;;;;;;;5.03;0.98;;;14.60;99.90;;;;;;5049627;28;20300;-74
2021/12/29 10:47:54;;;;;;;3.58;0.68;;;14.70;99.90;;;;;;5084091;28;20056;-75
2021/12/29 10:50:20;;;;;;;6.93;1.00;;;14.70;99.90;;;;;;5086845;28;20020;-75
2021/12/29 10:52:50;;;;;;;7.03;1.00;;;14.70;99.90;;;;;;5087000;28;20105;-76
2021/12/29 10:55:22;;;;;;;5.43;1.20;;;14.70;99.90;;;;;;5085597;28;20062;-75
2021/12/29 10:58:06;;;;;;;3.90;0.63;;;14.70;99.90;;;;;;5086982;28;20216;-74
2021/12/29 11:00:33;;;;;;;3.92;0.70;;;14.60;99.90;;;;;;5085033;28;20031;-73
2021/12/29 11:03:17;;;;;;;4.93;0.98;;;14.50;99.90;;;;;;5086371;28;20111;-74
2021/12/29 11:05:50;;;;;;;7.18;0.95;;;14.50;99.90;;;;;;5069066;28;20024;-74
2021/12/29 11:08:17;;;;;;;6.65;1.00;;;14.50;99.90;;;;;;5086693;28;20387;-75
2021/12/29 11:10:44;;;;;;;14.30;1.20;;;14.50;99.90;;;;;;5085504;28;20043;-76
2021/12/29 11:13:12;;;;;;;8.52;1.00;;;14.50;99.90;;;;;;5069007;28;20311;-74
2021/12/29 11:15:41;;;;;;;6.88;1.10;;;14.50;99.90;;;;;;5086846;28;20089;-74
2021/12/29 11:18:10;;;;;;;6.65;1.35;;;14.60;99.90;;;;;;5085229;28;20025;-75
2021/12/29 11:20:38;;;;;;;8.95;1.50;;;14.60;99.90;;;;;;5085223;28;20024;-76
2021/12/29 11:23:11;;;;;;;7.30;1.48;;;14.50;99.90;;;;;;5085614;28;20023;-73
2021/12/29 11:25:38;;;;;;;8.05;1.50;;;14.40;99.90;;;;;;5084975;28;20181;-73
2021/12/29 11:28:05;;;;;;;10.02;1.45;;;14.40;99.90;;;;;;5085223;28;20029;-74
2021/12/29 11:30:32;;;;;;;9.95;2.05;;;14.40;99.90;;;;;;5085844;28;20093;-74
2021/12/29 11:33:10;;;;;;;15.90;2.30;;;14.40;99.90;;;;;;5084136;28;20400;-76
2021/12/29 11:35:40;;;;;;;17.00;3.83;;;14.50;99.90;;;;;;5085835;28;20017;-75
2021/12/29 11:38:07;;;;;;;13.23;2.55;;;14.60;99.90;;;;;;5085190;28;20027;-75
2021/12/29 11:40:38;;;;;;;11.00;2.50;;;14.70;99.90;;;;;;5084943;28;20032;-75
2021/12/29 11:43:04;;;;;;;15.70;2.80;;;14.60;99.90;;;;;;5068329;28;20032;-75
2021/12/29 11:45:30;;;;;;;21.45;3.42;;;14.50;99.90;;;;;;5084710;28;20020;-75
2021/12/29 11:47:55;;;;;;;12.82;2.53;;;14.50;99.90;;;;;;5085639;28;20077;-74
2021/12/29 11:50:28;;;;;;;20.65;3.33;;;14.50;99.90;;;;;;5085906;28;20016;-74
2021/12/29 11:53:20;;;;;;;25.33;3.60;;;14.50;99.90;;;;;;5084414;28;20032;-75
2021/12/29 11:55:48;;;;;;;;;;;14.60;99.90;;;;;;5085400;28;20083;-74
2021/12/29 11:58:35;;;;;;;22.45;3.60;;;14.60;99.90;;;;;;5085691;28;19975;-74
2021/12/29 12:01:08;;;;;;;38.75;5.32;;;14.60;99.90;;;;;;5082132;28;20027;-74
2021/12/29 12:03:40;;;;;;;39.67;5.40;;;14.60;99.90;;;;;;5084563;28;20031;-76
2021/12/29 12:06:06;;;;;;;27.88;5.03;;;14.60;99.90;;;;;;5067679;28;20020;-76
2021/12/29 12:08:32;;;;;;;36.35;4.90;;;14.60;99.90;;;;;;5085517;28;20036;-74
2021/12/29 12:11:01;;;;;;;32.53;5.47;;;14.60;99.90;;;;;;5067726;28;20024;-74
2021/12/29 12:13:30;;;;;;;28.48;4.97;;;14.60;99.90;;;;;;5085556;28;20027;-74
2021/12/29 12:16:13;;;;;;;32.97;5.22;;;14.60;99.90;;;;;;5084027;28;20024;-75
2021/12/29 12:18:52;;;;;;;45.55;6.22;;;14.50;99.90;;;;;;5084883;28;20016;-75
2021/12/29 12:21:39;;;;;;;33.03;4.60;;;14.50;99.90;;;;;;5084246;28;20080;-77
2021/12/29 12:24:15;;;;;;;43.50;5.57;;;14.50;99.90;;;;;;5085301;28;20024;-75
2021/12/29 12:26:56;;;;;;;53.75;7.10;;;14.50;99.90;;;;;;5083705;28;20016;-76
2021/12/29 12:29:33;;;;;;;37.88;5.30;;;14.50;99.90;;;;;;5083953;28;20222;-74
2021/12/29 12:32:21;;;;;;;55.63;6.82;;;14.50;99.90;;;;;;5084414;28;20021;-75
2021/12/29 12:35:05;;;;;;;46.90;5.60;;;14.40;99.90;;;;;;5083481;28;20249;-74
2021/12/29 12:37:41;;;;;;;37.58;6.82;;;14.40;99.90;;;;;;5083661;28;20016;-74
2021/12/29 12:40:24;;;;;;;27.67;6.35;;;14.30;99.90;;;;;;5083686;28;20038;-73
2021/12/29 12:43:11;;;;;;;46.25;7.22;;;14.30;99.90;;;;;;5083961;28;20357;-74
2021/12/29 12:45:41;;;;;;;49.10;6.93;;;14.30;99.90;;;;;;5083583;28;20091;-77
2021/12/29 12:48:13;;;;;;;47.53;6.75;;;14.30;99.90;;;;;;5083122;28;20220;-77
2021/12/29 12:50:43;;;;;;;55.28;8.25;;;14.30;99.90;;;;;;5084481;28;20055;-74
2021/12/29 12:53:09;;;;;;;45.00;5.95;;;14.20;99.90;;;;;;5083460;28;20264;-74
2021/12/29 12:55:54;;;;;;;43.15;7.35;;;14.20;99.90;;;;;;5083556;28;20030;-76
2021/12/29 12:58:20;;;;;;;60.70;7.68;;;14.20;99.90;;;;;;5084561;28;20047;-76
2021/12/29 13:00:52;;;;;;;58.20;9.15;;;14.20;99.90;;;;;;5081287;28;20066;-75